sensor_id;sensor_type;location;lat;lon;timestamp;temperature;humidity
68385;DHT22;55336;43.062;25.626;2023-04-01T00:00:11;5.10;99.90
68385;DHT22;55336;43.062;25.626;2023-04-01T00:02:38;5.20;99.90
68385;DHT22;55336;43.062;25.626;2023-04-01T00:05:04;5.20;99.90
68385;DHT22;55336;43.062;25.626;2023-04-01T00:07:31;5.30;99.90
68385;DHT22;55336;43.062;25.626;2023-04-01T00:09:57;5.30;99.90
68385;DHT22;55336;43.062;25.626;2023-04-01T00:12:22;5.40;99.90
68385;DHT22;55336;43.062;25.626;2023-04-01T00:14:50;5.50;99.90
68385;DHT22;55336;43.062;25.626;2023-04-01T00:17:16;5.50;99.90
68385;DHT22;55336;43.062;25.626;2023-04-01T00:19:42;5.60;99.90
68385;DHT22;55336;43.062;25.626;2023-04-01T00:22:08;5.60;99.90
68385;DHT22;55336;43.062;25.626;2023-04-01T00:24:37;5.60;99.90
68385;DHT22;55336;43.062;25.626;2023-04-01T00:27:03;5.60;99.90
68385;DHT22;55336;43.062;25.626;2023-04-01T00:29:28;5.70;99.90
68385;DHT22;55336;43.062;25.626;2023-04-01T00:31:56;5.60;99.90
68385;DHT22;55336;43.062;25.626;2023-04-01T00:34:22;5.70;99.90
68385;DHT22;55336;43.062;25.626;2023-04-01T00:36:49;5.70;99.90
68385;DHT22;55336;43.062;25.626;2023-04-01T00:39:15;5.70;99.90
68385;DHT22;55336;43.062;25.626;2023-04-01T00:41:41;5.70;99.90
68385;DHT22;55336;43.062;25.626;2023-04-01T00:44:19;5.70;99.90
68385;DHT22;55336;43.062;25.626;2023-04-01T00:46:45;5.70;99.90
68385;DHT22;55336;43.062;25.626;2023-04-01T00:49:12;5.60;99.90
68385;DHT22;55336;43.062;25.626;2023-04-01T00:51:38;5.60;99.90
68385;DHT22;55336;43.062;25.626;2023-04-01T00:54:04;5.60;99.90
68385;DHT22;55336;43.062;25.626;2023-04-01T00:56:32;5.60;99.90
68385;DHT22;55336;43.062;25.626;2023-04-01T00:59:13;5.50;99.90
68385;DHT22;55336;43.062;25.626;2023-04-01T01:01:39;5.50;99.90
68385;DHT22;55336;43.062;25.626;2023-04-01T01:04:05;5.40;99.90
68385;DHT22;55336;43.062;25.626;2023-04-01T01:06:36;5.40;99.90
68385;DHT22;55336;43.062;25.626;2023-04-01T01:11:51;5.30;99.90
68385;DHT22;55336;43.062;25.626;2023-04-01T01:16:47;5.20;99.90
68385;DHT22;55336;43.062;25.626;2023-04-01T01:19:23;5.20;99.90
68385;DHT22;55336;43.062;25.626;2023-04-01T01:27:02;5.10;99.90
68385;DHT22;55336;43.062;25.626;2023-04-01T01:34:32;5.10;99.90
68385;DHT22;55336;43.062;25.626;2023-04-01T01:37:03;5.10;99.90
68385;DHT22;55336;43.062;25.626;2023-04-01T01:39:31;5.10;99.90
68385;DHT22;55336;43.062;25.626;2023-04-01T01:42:00;5.10;99.90
68385;DHT22;55336;43.062;25.626;2023-04-01T01:44:26;5.10;99.90
68385;DHT22;55336;43.062;25.626;2023-04-01T01:46:53;5.20;99.90
68385;DHT22;55336;43.062;25.626;2023-04-01T01:49:19;5.10;99.90
68385;DHT22;55336;43.062;25.626;2023-04-01T01:51:45;5.20;99.90
68385;DHT22;55336;43.062;25.626;2023-04-01T01:54:12;5.10;99.90
68385;DHT22;55336;43.062;25.626;2023-04-01T01:56:38;5.10;99.90
68385;DHT22;55336;43.062;25.626;2023-04-01T01:59:05;5.10;99.90
68385;DHT22;55336;43.062;25.626;2023-04-01T02:01:34;5.00;99.90
68385;DHT22;55336;43.062;25.626;2023-04-01T02:04:01;5.00;99.90
68385;DHT22;55336;43.062;25.626;2023-04-01T02:06:28;5.00;99.90
68385;DHT22;55336;43.062;25.626;2023-04-01T02:08:56;5.00;99.90
68385;DHT22;55336;43.062;25.626;2023-04-01T02:11:25;4.90;99.90
68385;DHT22;55336;43.062;25.626;2023-04-01T02:13:53;4.90;99.90
68385;DHT22;55336;43.062;25.626;2023-04-01T02:16:23;4.80;99.90
68385;DHT22;55336;43.062;25.626;2023-04-01T02:18:51;4.80;99.90
68385;DHT22;55336;43.062;25.626;2023-04-01T02:21:20;4.80;99.90
68385;DHT22;55336;43.062;25.626;2023-04-01T02:23:46;4.80;99.90
68385;DHT22;55336;43.062;25.626;2023-04-01T02:26:12;4.70;99.90
68385;DHT22;55336;43.062;25.626;2023-04-01T02:28:38;4.70;99.90
68385;DHT22;55336;43.062;25.626;2023-04-01T02:31:05;4.70;99.90
68385;DHT22;55336;43.062;25.626;2023-04-01T02:33:31;4.70;99.90
68385;DHT22;55336;43.062;25.626;2023-04-01T02:35:57;4.80;99.90
68385;DHT22;55336;43.062;25.626;2023-04-01T02:38:23;4.80;99.90
68385;DHT22;55336;43.062;25.626;2023-04-01T02:40:50;4.80;99.90
68385;DHT22;55336;43.062;25.626;2023-04-01T02:43:16;4.80;99.90
68385;DHT22;55336;43.062;25.626;2023-04-01T02:45:42;4.80;99.90
68385;DHT22;55336;43.062;25.626;2023-04-01T02:48:08;4.80;99.90
68385;DHT22;55336;43.062;25.626;2023-04-01T02:50:34;4.80;99.90
68385;DHT22;55336;43.062;25.626;2023-04-01T02:53:00;4.80;99.90
68385;DHT22;55336;43.062;25.626;2023-04-01T02:55:26;4.80;99.90
68385;DHT22;55336;43.062;25.626;2023-04-01T02:57:51;4.80;99.90
68385;DHT22;55336;43.062;25.626;2023-04-01T03:00:17;4.80;99.90
68385;DHT22;55336;43.062;25.626;2023-04-01T03:02:43;4.80;99.90
68385;DHT22;55336;43.062;25.626;2023-04-01T03:05:09;4.80;99.90
68385;DHT22;55336;43.062;25.626;2023-04-01T03:07:35;4.80;99.90
68385;DHT22;55336;43.062;25.626;2023-04-01T03:10:01;4.90;99.90
68385;DHT22;55336;43.062;25.626;2023-04-01T03:12:26;4.90;99.90
68385;DHT22;55336;43.062;25.626;2023-04-01T03:14:52;4.90;99.90
68385;DHT22;55336;43.062;25.626;2023-04-01T03:17:18;5.00;99.90
68385;DHT22;55336;43.062;25.626;2023-04-01T03:19:44;5.00;99.90
68385;DHT22;55336;43.062;25.626;2023-04-01T03:22:10;5.00;99.90
68385;DHT22;55336;43.062;25.626;2023-04-01T03:24:36;5.10;99.90
68385;DHT22;55336;43.062;25.626;2023-04-01T03:27:02;5.10;99.90
68385;DHT22;55336;43.062;25.626;2023-04-01T03:29:28;5.10;99.90
68385;DHT22;55336;43.062;25.626;2023-04-01T03:31:53;5.20;99.90
68385;DHT22;55336;43.062;25.626;2023-04-01T03:34:19;5.20;99.90
68385;DHT22;55336;43.062;25.626;2023-04-01T03:36:45;5.20;99.90
68385;DHT22;55336;43.062;25.626;2023-04-01T03:39:11;5.20;99.90
68385;DHT22;55336;43.062;25.626;2023-04-01T03:41:37;5.20;99.90
68385;DHT22;55336;43.062;25.626;2023-04-01T03:44:03;5.20;99.90
68385;DHT22;55336;43.062;25.626;2023-04-01T03:46:29;5.20;99.90
68385;DHT22;55336;43.062;25.626;2023-04-01T03:48:55;5.30;99.90
68385;DHT22;55336;43.062;25.626;2023-04-01T03:51:21;5.20;99.90
68385;DHT22;55336;43.062;25.626;2023-04-01T03:53:47;5.30;99.90
68385;DHT22;55336;43.062;25.626;2023-04-01T03:56:12;5.30;99.90
68385;DHT22;55336;43.062;25.626;2023-04-01T03:58:38;5.30;99.90
68385;DHT22;55336;43.062;25.626;2023-04-01T04:01:18;5.30;99.90
68385;DHT22;55336;43.062;25.626;2023-04-01T04:03:44;5.30;99.90
68385;DHT22;55336;43.062;25.626;2023-04-01T04:06:12;5.30;99.90
68385;DHT22;55336;43.062;25.626;2023-04-01T04:08:38;5.30;99.90
68385;DHT22;55336;43.062;25.626;2023-04-01T04:11:04;5.40;99.90
68385;DHT22;55336;43.062;25.626;2023-04-01T04:13:30;5.50;99.90
68385;DHT22;55336;43.062;25.626;2023-04-01T04:15:55;5.50;99.90
68385;DHT22;55336;43.062;25.626;2023-04-01T04:18:21;5.50;99.90
68385;DHT22;55336;43.062;25.626;2023-04-01T04:20:47;5.60;99.90
68385;DHT22;55336;43.062;25.626;2023-04-01T04:23:15;5.60;99.90
68385;DHT22;55336;43.062;25.626;2023-04-01T04:25:41;5.70;99.90
68385;DHT22;55336;43.062;25.626;2023-04-01T04:28:06;5.70;99.90
68385;DHT22;55336;43.062;25.626;2023-04-01T04:30:33;5.80;99.90
68385;DHT22;55336;43.062;25.626;2023-04-01T04:32:59;5.90;99.90
68385;DHT22;55336;43.062;25.626;2023-04-01T04:35:25;5.90;99.90
68385;DHT22;55336;43.062;25.626;2023-04-01T04:37:51;6.00;99.90
68385;DHT22;55336;43.062;25.626;2023-04-01T04:40:17;6.10;99.90
68385;DHT22;55336;43.062;25.626;2023-04-01T04:42:43;6.20;99.90
68385;DHT22;55336;43.062;25.626;2023-04-01T04:45:09;6.20;99.90
68385;DHT22;55336;43.062;25.626;2023-04-01T04:47:34;6.30;99.90
68385;DHT22;55336;43.062;25.626;2023-04-01T04:50:00;6.40;99.90
68385;DHT22;55336;43.062;25.626;2023-04-01T04:52:26;6.50;99.90
68385;DHT22;55336;43.062;25.626;2023-04-01T04:54:52;6.70;99.90
68385;DHT22;55336;43.062;25.626;2023-04-01T04:57:17;6.80;99.90
68385;DHT22;55336;43.062;25.626;2023-04-01T04:59:43;6.90;99.90
68385;DHT22;55336;43.062;25.626;2023-04-01T05:02:09;7.10;99.90
68385;DHT22;55336;43.062;25.626;2023-04-01T05:04:35;7.10;99.90
68385;DHT22;55336;43.062;25.626;2023-04-01T05:07:01;7.30;99.90
68385;DHT22;55336;43.062;25.626;2023-04-01T05:09:27;7.40;99.90
68385;DHT22;55336;43.062;25.626;2023-04-01T05:11:53;7.50;99.90
68385;DHT22;55336;43.062;25.626;2023-04-01T05:14:19;7.50;99.90
68385;DHT22;55336;43.062;25.626;2023-04-01T05:16:45;7.50;99.90
68385;DHT22;55336;43.062;25.626;2023-04-01T05:19:10;7.70;99.90
68385;DHT22;55336;43.062;25.626;2023-04-01T05:21:36;7.90;99.90
68385;DHT22;55336;43.062;25.626;2023-04-01T05:24:03;8.10;99.90
68385;DHT22;55336;43.062;25.626;2023-04-01T05:26:28;8.20;99.90
68385;DHT22;55336;43.062;25.626;2023-04-01T05:28:54;8.40;99.90
68385;DHT22;55336;43.062;25.626;2023-04-01T05:31:20;8.50;99.90
68385;DHT22;55336;43.062;25.626;2023-04-01T05:33:49;8.70;99.90
68385;DHT22;55336;43.062;25.626;2023-04-01T05:36:15;8.90;99.90
68385;DHT22;55336;43.062;25.626;2023-04-01T05:38:41;9.10;99.90
68385;DHT22;55336;43.062;25.626;2023-04-01T05:41:08;9.40;99.90
68385;DHT22;55336;43.062;25.626;2023-04-01T05:43:37;9.70;99.90
68385;DHT22;55336;43.062;25.626;2023-04-01T05:46:03;10.00;99.90
68385;DHT22;55336;43.062;25.626;2023-04-01T05:48:29;10.30;99.90
68385;DHT22;55336;43.062;25.626;2023-04-01T05:50:55;10.50;99.90
68385;DHT22;55336;43.062;25.626;2023-04-01T05:53:21;10.40;99.90
68385;DHT22;55336;43.062;25.626;2023-04-01T05:55:47;10.50;99.90
68385;DHT22;55336;43.062;25.626;2023-04-01T05:58:13;10.40;99.90
68385;DHT22;55336;43.062;25.626;2023-04-01T06:00:43;10.80;99.90
68385;DHT22;55336;43.062;25.626;2023-04-01T06:03:08;11.00;99.90
68385;DHT22;55336;43.062;25.626;2023-04-01T06:05:41;11.00;99.90
68385;DHT22;55336;43.062;25.626;2023-04-01T06:08:11;11.10;99.90
68385;DHT22;55336;43.062;25.626;2023-04-01T06:15:49;11.10;99.90
68385;DHT22;55336;43.062;25.626;2023-04-01T06:25:39;11.20;99.90
68385;DHT22;55336;43.062;25.626;2023-04-01T06:31:01;11.40;99.90
68385;DHT22;55336;43.062;25.626;2023-04-01T06:41:21;11.80;99.90
68385;DHT22;55336;43.062;25.626;2023-04-01T06:46:26;11.70;99.90
68385;DHT22;55336;43.062;25.626;2023-04-01T06:54:04;12.10;99.90
68385;DHT22;55336;43.062;25.626;2023-04-01T06:56:32;12.10;99.90
68385;DHT22;55336;43.062;25.626;2023-04-01T06:59:15;12.20;99.90
68385;DHT22;55336;43.062;25.626;2023-04-01T07:01:51;12.20;99.90
68385;DHT22;55336;43.062;25.626;2023-04-01T07:04:23;12.30;99.90
68385;DHT22;55336;43.062;25.626;2023-04-01T07:06:55;12.20;99.90
68385;DHT22;55336;43.062;25.626;2023-04-01T07:09:24;12.30;99.90
68385;DHT22;55336;43.062;25.626;2023-04-01T07:11:50;12.20;99.90
68385;DHT22;55336;43.062;25.626;2023-04-01T07:14:32;12.50;99.90
68385;DHT22;55336;43.062;25.626;2023-04-01T07:17:06;12.60;99.90
68385;DHT22;55336;43.062;25.626;2023-04-01T07:22:09;12.90;99.90
68385;DHT22;55336;43.062;25.626;2023-04-01T07:24:40;13.00;99.90
68385;DHT22;55336;43.062;25.626;2023-04-01T07:27:11;13.10;99.90
68385;DHT22;55336;43.062;25.626;2023-04-01T07:29:37;13.40;99.90
68385;DHT22;55336;43.062;25.626;2023-04-01T07:37:26;13.90;99.90
68385;DHT22;55336;43.062;25.626;2023-04-01T07:54:59;15.70;99.90
68385;DHT22;55336;43.062;25.626;2023-04-01T08:05:25;17.90;92.60
68385;DHT22;55336;43.062;25.626;2023-04-01T08:15:57;20.40;74.10
68385;DHT22;55336;43.062;25.626;2023-04-01T08:21:17;20.10;71.80
68385;DHT22;55336;43.062;25.626;2023-04-01T08:23:46;20.40;67.60
68385;DHT22;55336;43.062;25.626;2023-04-01T08:26:15;20.80;62.30
68385;DHT22;55336;43.062;25.626;2023-04-01T08:32:00;21.10;58.20
68385;DHT22;55336;43.062;25.626;2023-04-01T08:34:09;21.30;56.40
68385;DHT22;55336;43.062;25.626;2023-04-01T08:36:39;20.80;57.50
68385;DHT22;55336;43.062;25.626;2023-04-01T08:39:06;21.60;54.80
68385;DHT22;55336;43.062;25.626;2023-04-01T08:44:24;21.60;52.40
68385;DHT22;55336;43.062;25.626;2023-04-01T08:47:13;21.70;52.90
68385;DHT22;55336;43.062;25.626;2023-04-01T08:49:51;21.70;53.80
68385;DHT22;55336;43.062;25.626;2023-04-01T08:52:33;21.40;52.50
68385;DHT22;55336;43.062;25.626;2023-04-01T09:18:16;23.60;46.80
68385;DHT22;55336;43.062;25.626;2023-04-01T09:21:01;23.80;48.60
68385;DHT22;55336;43.062;25.626;2023-04-01T09:28:42;24.10;40.00
68385;DHT22;55336;43.062;25.626;2023-04-01T09:33:58;25.00;39.00
68385;DHT22;55336;43.062;25.626;2023-04-01T09:39:18;24.90;37.80
68385;DHT22;55336;43.062;25.626;2023-04-01T09:42:14;25.00;36.00
68385;DHT22;55336;43.062;25.626;2023-04-01T09:44:42;25.30;35.10
68385;DHT22;55336;43.062;25.626;2023-04-01T09:47:45;25.10;35.10
68385;DHT22;55336;43.062;25.626;2023-04-01T09:52:48;24.80;37.30
68385;DHT22;55336;43.062;25.626;2023-04-01T10:19:07;22.50;40.90
68385;DHT22;55336;43.062;25.626;2023-04-01T10:24:17;22.30;40.80
68385;DHT22;55336;43.062;25.626;2023-04-01T10:37:01;22.10;42.90
68385;DHT22;55336;43.062;25.626;2023-04-01T10:42:05;21.80;43.60
68385;DHT22;55336;43.062;25.626;2023-04-01T11:18:47;24.70;37.60
68385;DHT22;55336;43.062;25.626;2023-04-01T11:21:31;24.50;38.10
68385;DHT22;55336;43.062;25.626;2023-04-01T11:24:16;24.70;39.20
68385;DHT22;55336;43.062;25.626;2023-04-01T11:29:19;25.90;34.40
68385;DHT22;55336;43.062;25.626;2023-04-01T11:37:31;24.70;35.00
68385;DHT22;55336;43.062;25.626;2023-04-01T11:40:08;24.50;35.40
68385;DHT22;55336;43.062;25.626;2023-04-01T11:45:43;24.20;35.40
68385;DHT22;55336;43.062;25.626;2023-04-01T11:50:42;24.00;38.30
68385;DHT22;55336;43.062;25.626;2023-04-01T11:53:12;23.80;39.60
68385;DHT22;55336;43.062;25.626;2023-04-01T11:55:54;24.40;39.20
68385;DHT22;55336;43.062;25.626;2023-04-01T12:01:14;24.80;38.80
68385;DHT22;55336;43.062;25.626;2023-04-01T12:14:39;24.80;39.70
68385;DHT22;55336;43.062;25.626;2023-04-01T12:17:10;24.60;40.80
68385;DHT22;55336;43.062;25.626;2023-04-01T12:24:58;24.30;41.50
68385;DHT22;55336;43.062;25.626;2023-04-01T12:27:31;24.30;41.40
68385;DHT22;55336;43.062;25.626;2023-04-01T12:30:14;25.00;41.20
68385;DHT22;55336;43.062;25.626;2023-04-01T12:35:37;25.10;39.90
68385;DHT22;55336;43.062;25.626;2023-04-01T12:38:13;25.50;39.90
68385;DHT22;55336;43.062;25.626;2023-04-01T12:45:54;25.70;40.30
68385;DHT22;55336;43.062;25.626;2023-04-01T12:48:27;25.70;37.30
68385;DHT22;55336;43.062;25.626;2023-04-01T12:54:02;26.50;38.60
68385;DHT22;55336;43.062;25.626;2023-04-01T12:59:20;26.10;38.90
68385;DHT22;55336;43.062;25.626;2023-04-01T13:04:30;25.40;41.80
68385;DHT22;55336;43.062;25.626;2023-04-01T13:07:11;25.30;42.20
68385;DHT22;55336;43.062;25.626;2023-04-01T13:12:29;24.20;45.40
68385;DHT22;55336;43.062;25.626;2023-04-01T13:15:17;23.80;47.20
68385;DHT22;55336;43.062;25.626;2023-04-01T13:23:06;22.80;48.90
68385;DHT22;55336;43.062;25.626;2023-04-01T13:33:38;21.80;50.80
68385;DHT22;55336;43.062;25.626;2023-04-01T13:38:43;21.50;52.30
68385;DHT22;55336;43.062;25.626;2023-04-01T13:41:26;21.30;52.70
68385;DHT22;55336;43.062;25.626;2023-04-01T13:44:00;21.30;52.80
68385;DHT22;55336;43.062;25.626;2023-04-01T13:46:51;21.20;53.40
68385;DHT22;55336;43.062;25.626;2023-04-01T14:10:18;19.50;57.10
68385;DHT22;55336;43.062;25.626;2023-04-01T14:20:29;19.10;57.20
68385;DHT22;55336;43.062;25.626;2023-04-01T14:23:08;18.90;57.60
68385;DHT22;55336;43.062;25.626;2023-04-01T14:30:43;18.30;63.40
68385;DHT22;55336;43.062;25.626;2023-04-01T14:36:19;17.80;67.80
68385;DHT22;55336;43.062;25.626;2023-04-01T14:41:28;16.20;99.90
68385;DHT22;55336;43.062;25.626;2023-04-01T14:49:34;13.70;99.90
68385;DHT22;55336;43.062;25.626;2023-04-01T14:52:09;13.40;99.90
68385;DHT22;55336;43.062;25.626;2023-04-01T14:54:37;13.30;99.90
68385;DHT22;55336;43.062;25.626;2023-04-01T14:59:45;13.40;99.90
68385;DHT22;55336;43.062;25.626;2023-04-01T15:04:52;13.20;99.90
68385;DHT22;55336;43.062;25.626;2023-04-01T15:20:25;12.30;99.90
68385;DHT22;55336;43.062;25.626;2023-04-01T15:25:36;12.00;99.90
68385;DHT22;55336;43.062;25.626;2023-04-01T15:35:57;11.70;99.90
68385;DHT22;55336;43.062;25.626;2023-04-01T15:41:14;11.70;99.90
68385;DHT22;55336;43.062;25.626;2023-04-01T15:46:30;11.90;99.90
68385;DHT22;55336;43.062;25.626;2023-04-01T15:49:03;11.80;99.90
68385;DHT22;55336;43.062;25.626;2023-04-01T16:11:53;12.80;99.90
68385;DHT22;55336;43.062;25.626;2023-04-01T16:14:35;12.80;99.90
68385;DHT22;55336;43.062;25.626;2023-04-01T16:22:19;12.70;99.90
68385;DHT22;55336;43.062;25.626;2023-04-01T16:24:53;12.60;99.90
68385;DHT22;55336;43.062;25.626;2023-04-01T16:32:35;12.10;99.90
68385;DHT22;55336;43.062;25.626;2023-04-01T16:37:52;11.90;99.90
68385;DHT22;55336;43.062;25.626;2023-04-01T16:40:31;11.90;99.90
68385;DHT22;55336;43.062;25.626;2023-04-01T16:45:53;11.80;99.90
68385;DHT22;55336;43.062;25.626;2023-04-01T16:48:21;11.70;99.90
68385;DHT22;55336;43.062;25.626;2023-04-01T16:56:07;11.60;99.90
68385;DHT22;55336;43.062;25.626;2023-04-01T16:58:48;11.60;99.90
68385;DHT22;55336;43.062;25.626;2023-04-01T17:01:17;11.50;99.90
68385;DHT22;55336;43.062;25.626;2023-04-01T17:03:59;11.50;99.90
68385;DHT22;55336;43.062;25.626;2023-04-01T17:06:46;11.50;99.90
68385;DHT22;55336;43.062;25.626;2023-04-01T17:11:44;11.40;99.90
68385;DHT22;55336;43.062;25.626;2023-04-01T17:14:14;11.40;99.90
68385;DHT22;55336;43.062;25.626;2023-04-01T17:16:51;11.40;99.90
68385;DHT22;55336;43.062;25.626;2023-04-01T17:26:53;11.20;99.90
68385;DHT22;55336;43.062;25.626;2023-04-01T17:29:25;11.10;99.90
68385;DHT22;55336;43.062;25.626;2023-04-01T17:36:45;10.80;99.90
68385;DHT22;55336;43.062;25.626;2023-04-01T17:39:36;10.70;99.90
68385;DHT22;55336;43.062;25.626;2023-04-01T17:52:35;10.00;99.90
68385;DHT22;55336;43.062;25.626;2023-04-01T18:00:17;9.90;99.90
68385;DHT22;55336;43.062;25.626;2023-04-01T18:05:46;9.70;99.90
68385;DHT22;55336;43.062;25.626;2023-04-01T18:10:57;9.80;99.90
68385;DHT22;55336;43.062;25.626;2023-04-01T18:23:27;10.00;99.90
68385;DHT22;55336;43.062;25.626;2023-04-01T18:26:01;10.10;99.90
68385;DHT22;55336;43.062;25.626;2023-04-01T18:28:36;10.20;99.90
68385;DHT22;55336;43.062;25.626;2023-04-01T18:38:57;10.30;99.90
68385;DHT22;55336;43.062;25.626;2023-04-01T18:41:34;10.40;99.90
68385;DHT22;55336;43.062;25.626;2023-04-01T18:44:14;10.40;99.90
68385;DHT22;55336;43.062;25.626;2023-04-01T18:46:49;10.40;99.90
68385;DHT22;55336;43.062;25.626;2023-04-01T18:55:20;10.50;99.90
68385;DHT22;55336;43.062;25.626;2023-04-01T18:57:25;10.50;99.90
68385;DHT22;55336;43.062;25.626;2023-04-01T18:59:57;10.40;99.90
68385;DHT22;55336;43.062;25.626;2023-04-01T19:05:01;10.50;99.90
68385;DHT22;55336;43.062;25.626;2023-04-01T19:07:43;10.50;99.90
68385;DHT22;55336;43.062;25.626;2023-04-01T19:17:58;9.90;99.90
68385;DHT22;55336;43.062;25.626;2023-04-01T19:20:37;10.40;99.90
68385;DHT22;55336;43.062;25.626;2023-04-01T19:25:51;10.30;99.90
68385;DHT22;55336;43.062;25.626;2023-04-01T19:34:07;10.30;99.90
68385;DHT22;55336;43.062;25.626;2023-04-01T19:41:53;10.30;99.90
68385;DHT22;55336;43.062;25.626;2023-04-01T19:47:05;10.20;99.90
68385;DHT22;55336;43.062;25.626;2023-04-01T19:52:14;10.20;99.90
68385;DHT22;55336;43.062;25.626;2023-04-01T19:54:45;10.20;99.90
68385;DHT22;55336;43.062;25.626;2023-04-01T19:57:17;10.20;99.90
68385;DHT22;55336;43.062;25.626;2023-04-01T20:02:35;10.20;99.90
68385;DHT22;55336;43.062;25.626;2023-04-01T20:05:05;10.20;99.90
68385;DHT22;55336;43.062;25.626;2023-04-01T20:07:42;10.20;99.90
68385;DHT22;55336;43.062;25.626;2023-04-01T20:10:32;10.20;99.90
68385;DHT22;55336;43.062;25.626;2023-04-01T20:13:19;10.20;99.90
68385;DHT22;55336;43.062;25.626;2023-04-01T20:15:43;10.20;99.90
68385;DHT22;55336;43.062;25.626;2023-04-01T20:18:18;10.20;99.90
68385;DHT22;55336;43.062;25.626;2023-04-01T20:20:56;10.20;99.90
68385;DHT22;55336;43.062;25.626;2023-04-01T20:23:30;10.10;99.90
68385;DHT22;55336;43.062;25.626;2023-04-01T20:26:02;10.00;99.90
68385;DHT22;55336;43.062;25.626;2023-04-01T20:28:30;9.90;99.90
68385;DHT22;55336;43.062;25.626;2023-04-01T20:31:01;9.80;99.90
68385;DHT22;55336;43.062;25.626;2023-04-01T20:36:21;9.60;99.90
68385;DHT22;55336;43.062;25.626;2023-04-01T20:41:28;9.40;99.90
68385;DHT22;55336;43.062;25.626;2023-04-01T20:44:17;9.30;99.90
68385;DHT22;55336;43.062;25.626;2023-04-01T20:46:51;9.20;99.90
68385;DHT22;55336;43.062;25.626;2023-04-01T20:51:52;9.10;99.90
68385;DHT22;55336;43.062;25.626;2023-04-01T20:56:50;8.90;99.90
68385;DHT22;55336;43.062;25.626;2023-04-01T21:02:11;8.70;99.90
68385;DHT22;55336;43.062;25.626;2023-04-01T21:07:49;8.40;99.90
68385;DHT22;55336;43.062;25.626;2023-04-01T21:10:33;8.30;99.90
68385;DHT22;55336;43.062;25.626;2023-04-01T21:15:38;8.00;99.90
68385;DHT22;55336;43.062;25.626;2023-04-01T21:18:14;7.90;99.90
68385;DHT22;55336;43.062;25.626;2023-04-01T21:26:26;7.70;99.90
68385;DHT22;55336;43.062;25.626;2023-04-01T21:31:38;7.60;99.90
68385;DHT22;55336;43.062;25.626;2023-04-01T21:39:23;7.70;99.90
68385;DHT22;55336;43.062;25.626;2023-04-01T21:41:55;7.70;99.90
68385;DHT22;55336;43.062;25.626;2023-04-01T22:00:07;7.60;99.90
68385;DHT22;55336;43.062;25.626;2023-04-01T22:05:32;7.80;99.90
68385;DHT22;55336;43.062;25.626;2023-04-01T22:08:05;7.90;99.90
68385;DHT22;55336;43.062;25.626;2023-04-01T22:10:36;8.00;99.90
68385;DHT22;55336;43.062;25.626;2023-04-01T22:13:10;8.00;99.90
68385;DHT22;55336;43.062;25.626;2023-04-01T22:15:48;8.00;99.90
68385;DHT22;55336;43.062;25.626;2023-04-01T22:18:29;8.10;99.90
68385;DHT22;55336;43.062;25.626;2023-04-01T22:21:05;8.10;99.90
68385;DHT22;55336;43.062;25.626;2023-04-01T22:23:44;8.20;99.90
68385;DHT22;55336;43.062;25.626;2023-04-01T22:31:18;8.30;99.90
68385;DHT22;55336;43.062;25.626;2023-04-01T22:33:53;8.30;99.90
68385;DHT22;55336;43.062;25.626;2023-04-01T22:41:36;8.30;99.90
68385;DHT22;55336;43.062;25.626;2023-04-01T22:44:05;8.30;99.90
68385;DHT22;55336;43.062;25.626;2023-04-01T22:46:44;8.30;99.90
68385;DHT22;55336;43.062;25.626;2023-04-01T22:51:43;8.40;99.90
68385;DHT22;55336;43.062;25.626;2023-04-01T22:54:17;8.40;99.90
68385;DHT22;55336;43.062;25.626;2023-04-01T23:02:03;8.40;99.90
68385;DHT22;55336;43.062;25.626;2023-04-01T23:04:32;8.40;99.90
68385;DHT22;55336;43.062;25.626;2023-04-01T23:07:02;8.50;99.90
68385;DHT22;55336;43.062;25.626;2023-04-01T23:09:29;8.50;99.90
68385;DHT22;55336;43.062;25.626;2023-04-01T23:25:01;8.50;99.90
68385;DHT22;55336;43.062;25.626;2023-04-01T23:27:31;8.50;99.90
68385;DHT22;55336;43.062;25.626;2023-04-01T23:30:00;8.50;99.90
68385;DHT22;55336;43.062;25.626;2023-04-01T23:32:26;8.50;99.90
68385;DHT22;55336;43.062;25.626;2023-04-01T23:34:53;8.50;99.90
68385;DHT22;55336;43.062;25.626;2023-04-01T23:37:20;8.60;99.90
68385;DHT22;55336;43.062;25.626;2023-04-01T23:39:54;8.50;99.90
68385;DHT22;55336;43.062;25.626;2023-04-01T23:42:25;8.60;99.90
68385;DHT22;55336;43.062;25.626;2023-04-01T23:44:53;8.10;99.90
68385;DHT22;55336;43.062;25.626;2023-04-01T23:47:21;8.60;99.90
68385;DHT22;55336;43.062;25.626;2023-04-01T23:49:49;8.60;99.90
68385;DHT22;55336;43.062;25.626;2023-04-01T23:52:19;8.50;99.90
68385;DHT22;55336;43.062;25.626;2023-04-01T23:57:21;8.60;99.90
